Francisco Bangoy International Airport
RPMD : now visible

Airfield :











YOU CAN JOIN US ON...

 
LOGIN :

Register | Disclaimer

   EN    FR    IT 

 









Legend :    VFR   Marginal VFR   IFR   Intensive IFR   Very Intensive IFR
Visi :
Ceiling :
>= 8 km
>= 3000ft
5 to 8 km
1000 to 3000 ft
1500m to 5 km
500 to 1000 ft
800 to 1500m
200 to 500 ft
< 800m
< 200 ft
Symbols :   Thunderstorms  Fog  Heavy snow  Heavy precipitations  Wind > 20 kt






- Airport Elevation : 96 ft
- IATA code : DVO


RPMD - Francisco Bangoy International

CURRENT METAR :
  • 230200Z 17006KT 130V210 9999 FEW016 SCT260 30/25 Q1010 RMK A2983

EXPIRED METARs :
  • 230100Z VRB02KT 9999 FEW016 BKN260 29/24 Q1010 RMK A2983
  • 230000Z VRB01KT 9999 FEW016 BKN090 28/25 Q1010 RMK A2983
  • 222300Z VRB01KT 9999 FEW016 BKN090 BKN260 26/24 Q1010 RMK A2983
  • 222200Z VRB02KT 9999 FEW016 BKN090 BKN260 26/22 Q1009 RMK A2980

TAF TAF RPMD
Valid from the 23 at 00:00 until the 24 at 00:00 UTC


222300Z 2300/2324 19008KT 9999 FEW016 SCT090
TEMPO 2300/2303 24003KT
TEMPO 2306/2312 -SHRA FEW016CB BKN080
BECMG 2315/2317 23004KT FEW016 BKN090
RPHI FIR / Asia



MET'MAP, your aeronautical weather chart ! - Copyright ORBIFLY December 2007 - Disclaimer

ORBIFLY MET'MAP TEAM :

Programming & Development : Alexandra Zaïnal
Original concept : Baudouin d'Aumeries
Technical & hardware support : Manuel Goepfert
Assistance : Marc-Olivier Méhu




SOURCES & CREDITS :

   NOAA       Earth
Advisory